Boaz, AL

11:28 AM CDT on August 22, 2014 (GMT -0500)
Double Bridges | Change Station
CLOSE
Current Station
Personal Weather Station
Location: Boaz, AL
Elevation: 1066 ft
Nearby Weather Stations
Active Advisory: Heat Advisory

Elev 1066 ft 34.22 °N, 86.13 °W | Updated 10 minutes ago

Scattered Clouds
Scattered Clouds
87.3 °F
Feels Like 100 °F
N
3.7
Wind Variable Wind from NNE

Today
High -- | Low -- °F
--% Chance of Precip.
Yesterday
High -- | Low -- °F
Precip. -- in
6:10 AM 7:23 PM
Waning Crescent, 8% visible
Pressure 30.14 in
Visibility 10.0 miles
Clouds Scattered Clouds 2900 ft
Heat Index 100 °F
Dew Point 78 °F
Humidity 73%
Rainfall 0.00 in
Snow Depth Not available.
UV 8 out of 12
Pollen 9.20 out of 12
Ozone Good
PM2.5 Moderate
Flu Activity Not available.
METAR K8A0 221615Z AUTO 27008KT 10SM SCT029 31/26 A3014 RMK AO2 LTG DSNT S

More Conditions Fewer Conditions

Pressure 30.14 in
Visibility 10.0 miles
Clouds Scattered Clouds 2900 ft
Heat Index 100 °F
Dew Point 78 °F
Humidity 73%
Rainfall 0.00 in
Snow Depth Not available.
UV 8 out of 12
Pollen 9.20 out of 12
Ozone Good
PM2.5 Moderate
Flu Activity Not available.
METAR K8A0 221615Z AUTO 27008KT 10SM SCT029 31/26 A3014 RMK AO2 LTG DSNT S

More Conditions Fewer Conditions

10-Day Weather Forecast

Almanac

Astronomy

Aug. 22, 2014 Rise Set
Actual Time 6:10 AM CDT 7:23 PM CDT
Civil Twilight 5:44 AM CDT 7:49 PM CDT
Nautical Twilight 5:13 AM CDT 8:20 PM CDT
Astronomical Twilight 4:41 AM CDT 8:52 PM CDT
Moon 3:36 AM CDT 5:29 PM CDT
Length of Visible Light 14h 04m
Length of Day
13h 12m
Tomorrow will be 1m 57s shorter.
Waning Crescent, 8% of the Moon is Illuminated
Today
Waning Crescent
Aug 25
New
Sep 2
First Quarter
Sep 8
Full
Sep 15
Last Quarter

Today's Extremes

State Highs State Lows

Community

WunderPhotos

Upload Photos

1,746,194 photos uploaded!

Nearby

Air Quality

  Air Quality AQ Index Pollutant
Yesterday Good
PM10
Yesterday Good
OZONE
Current Moderate
PM2.5
Current Good
OZONE
Friday Moderate
PM2.5
Friday Good
OZONE

Snow Depth

Station Depth Elevation
No new snow has been reported.

Earthquake Activity

City Distance Mag. Time & Date
No recent earthquake activity has been reported nearby.
Minimum magnitude displayed is 2.5.

Coastal Water Temperatures

Place Temperature
No Stations Reporting

Nearby Weather Stations